createdAt,value
2023-01-11T00:00:01.961Z,0.001
2023-01-11T00:05:01.930Z,0.001
2023-01-11T00:10:01.923Z,0.02
2023-01-11T00:15:01.945Z,0.024
2023-01-11T00:20:01.991Z,0.016
2023-01-11T00:25:01.933Z,0.023
2023-01-11T00:30:02.030Z,0.006
2023-01-11T00:35:02.055Z,0.012
2023-01-11T00:40:02.098Z,0
2023-01-11T00:45:02.160Z,0
2023-01-11T00:50:01.914Z,0.001
2023-01-11T00:55:01.950Z,0.002
2023-01-11T01:00:01.988Z,0.002
2023-01-11T01:05:01.936Z,0
2023-01-11T01:10:01.926Z,0.025
2023-01-11T01:15:02.003Z,0.062
2023-01-11T01:20:02.040Z,0.14300000000000002
2023-01-11T01:25:02.076Z,0.17500000000000002
2023-01-11T01:30:01.976Z,0.169
2023-01-11T01:35:01.971Z,0.021
2023-01-11T01:40:01.993Z,0
2023-01-11T01:45:02.087Z,0
2023-01-11T01:50:02.099Z,0
2023-01-11T01:55:02.106Z,0
2023-01-11T02:00:02.196Z,0
2023-01-11T02:05:02.029Z,0
2023-01-11T02:10:01.995Z,0.095
2023-01-11T02:15:02.041Z,0.1
2023-01-11T02:20:02.084Z,0.157
2023-01-11T02:25:01.990Z,0.149
2023-01-11T02:30:02.152Z,0
2023-01-11T02:35:02.004Z,0
2023-01-11T02:40:02.038Z,0
2023-01-11T02:45:02.107Z,0
2023-01-11T02:50:02.128Z,0
2023-01-11T02:55:02.201Z,0
2023-01-11T03:00:02.236Z,0
2023-01-11T03:05:02.046Z,0
2023-01-11T03:10:02.060Z,0
2023-01-11T03:15:02.171Z,0.002
2023-01-11T03:20:02.097Z,0
2023-01-11T03:25:02.151Z,0.006
2023-01-11T03:30:02.077Z,0.001
2023-01-11T03:35:02.106Z,0.002
2023-01-11T03:40:02.082Z,0
2023-01-11T03:45:02.146Z,0
2023-01-11T03:50:02.145Z,0
2023-01-11T03:55:02.265Z,0
2023-01-11T04:00:02.275Z,0.003
2023-01-11T04:05:02.312Z,0.033
2023-01-11T04:10:02.069Z,0.016
2023-01-11T04:15:02.172Z,0.015
2023-01-11T04:20:02.117Z,0.001
2023-01-11T04:25:02.107Z,0
2023-01-11T04:30:02.125Z,0
2023-01-11T04:35:02.152Z,0
2023-01-11T04:40:02.112Z,0
2023-01-11T04:45:02.134Z,0
2023-01-11T04:50:02.236Z,0.001
2023-01-11T04:55:02.594Z,0
2023-01-11T05:00:02.314Z,0
2023-01-11T05:05:02.454Z,0
2023-01-11T05:10:02.164Z,0
2023-01-11T05:15:02.191Z,0
2023-01-11T05:20:02.161Z,0.111
2023-01-11T05:25:02.203Z,0.11900000000000001
2023-01-11T05:30:02.342Z,0.113
2023-01-11T05:35:02.202Z,0.14300000000000002
2023-01-11T05:40:02.204Z,0.17
2023-01-11T05:45:02.176Z,0.17200000000000001
2023-01-11T05:50:02.208Z,0.124
2023-01-11T05:55:02.312Z,0
2023-01-11T06:00:02.280Z,0
2023-01-11T06:05:02.381Z,0
2023-01-11T06:10:02.427Z,0.074
2023-01-11T06:15:02.259Z,0.605
2023-01-11T06:20:02.339Z,0.499
2023-01-11T06:25:02.402Z,0.5640000000000001
2023-01-11T06:30:02.279Z,0.503
2023-01-11T06:35:02.201Z,0.52
2023-01-11T06:40:02.233Z,0.6980000000000001
2023-01-11T06:45:02.422Z,0.656
2023-01-11T06:50:02.256Z,0.766
2023-01-11T06:55:02.272Z,0.841
2023-01-11T07:00:02.322Z,0.783
2023-01-11T07:05:02.317Z,0.728
2023-01-11T07:10:02.284Z,0.607
2023-01-11T07:15:02.405Z,0.553
2023-01-11T07:20:02.450Z,0.599
2023-01-11T07:25:02.527Z,0.64
2023-01-11T07:30:02.262Z,0.637
2023-01-11T07:35:02.250Z,0.637
2023-01-11T07:40:02.247Z,0.644
2023-01-11T07:45:02.249Z,0.28600000000000003
2023-01-11T07:50:02.298Z,0.006
2023-01-11T07:55:02.373Z,0.006
2023-01-11T08:00:02.299Z,0
2023-01-11T08:05:03.327Z,0.004
2023-01-11T08:10:02.303Z,0.003
2023-01-11T08:15:02.525Z,0.041
2023-01-11T08:20:02.507Z,0.046
2023-01-11T08:25:02.527Z,0.043000000000000003
2023-01-11T08:30:02.341Z,0.044
2023-01-11T08:35:02.619Z,0.053
2023-01-11T08:40:02.356Z,0.092
2023-01-11T08:45:02.420Z,0.088
2023-01-11T08:50:02.387Z,0.083
2023-01-11T08:55:02.347Z,0.037
2023-01-11T09:00:02.331Z,1.179
2023-01-11T09:05:02.340Z,29.676000000000002
2023-01-11T09:10:02.512Z,26.735
2023-01-11T09:15:02.551Z,31.829
2023-01-11T09:20:02.621Z,31.651
2023-01-11T09:25:02.349Z,28.7
2023-01-11T09:30:02.365Z,34.726
2023-01-11T09:35:02.392Z,37.19
2023-01-11T09:40:02.372Z,48.568
2023-01-11T09:45:02.431Z,48.984
2023-01-11T09:50:02.369Z,45.18
2023-01-11T09:55:02.518Z,46.959
2023-01-11T10:00:02.423Z,45.025
2023-01-11T10:05:02.499Z,52.189
2023-01-11T10:18:21.663Z,150.269
2023-01-11T10:20:02.726Z,235.30100000000002
2023-01-11T10:25:02.400Z,265.656
2023-01-11T10:30:02.495Z,294.543
2023-01-11T10:35:02.503Z,247.601
2023-01-11T10:40:02.417Z,245.082
2023-01-11T10:45:02.467Z,229.296
2023-01-11T10:50:04.268Z,117.34100000000001
2023-01-11T10:55:02.476Z,154.216
2023-01-11T11:00:02.509Z,349.935
2023-01-11T11:05:02.466Z,328.82
2023-01-11T11:10:02.482Z,182.598
2023-01-11T11:15:02.546Z,178.544
2023-01-11T11:20:02.658Z,149.391
2023-01-11T11:25:02.685Z,219.699
2023-01-11T11:30:02.563Z,299.741
2023-01-11T11:35:02.495Z,460.348
2023-01-11T11:40:02.497Z,557.549
2023-01-11T11:45:02.512Z,479.483
2023-01-11T11:50:02.466Z,244.038
2023-01-11T11:55:02.544Z,157.153
2023-01-11T12:00:02.581Z,173.796
2023-01-11T12:05:02.508Z,169.238
2023-01-11T12:10:02.551Z,219.571
2023-01-11T12:15:02.527Z,134.618
2023-01-11T12:20:02.601Z,179.76500000000001
2023-01-11T12:25:02.660Z,123.888
2023-01-11T12:30:02.655Z,74.106
2023-01-11T12:35:02.689Z,73.643
2023-01-11T12:40:02.518Z,102.635
2023-01-11T12:45:02.606Z,96.97800000000001
2023-01-11T12:50:02.551Z,160.02
2023-01-11T12:55:02.692Z,146.237
2023-01-11T13:00:02.603Z,155.173
2023-01-11T13:10:38.185Z,177.885
2023-01-11T13:15:02.587Z,123.459
2023-01-11T13:20:02.660Z,112.186
2023-01-11T13:25:02.639Z,114.534
2023-01-11T13:30:02.672Z,111.4
2023-01-11T13:35:02.832Z,116.316
2023-01-11T13:40:02.943Z,68.412
2023-01-11T13:45:02.729Z,49.463
2023-01-11T13:50:02.647Z,36.482
2023-01-11T13:55:03.213Z,52.653
2023-01-11T14:00:02.638Z,70.978
2023-01-11T14:05:02.627Z,57.581
2023-01-11T14:10:02.639Z,51.079
2023-01-11T14:15:02.661Z,44.9
2023-01-11T14:20:02.665Z,48.206
2023-01-11T14:25:02.622Z,39.732
2023-01-11T14:30:02.657Z,38.084
2023-01-11T14:35:02.745Z,7.606
2023-01-11T14:40:02.924Z,0.016
2023-01-11T14:45:02.782Z,0.125
2023-01-11T14:50:02.759Z,0.178
2023-01-11T14:55:02.615Z,0.182
2023-01-11T15:00:02.629Z,0.182
2023-01-11T15:05:02.734Z,0.133
2023-01-11T15:10:02.689Z,0.12
2023-01-11T15:15:02.828Z,0.117
2023-01-11T15:20:02.722Z,0.07100000000000001
2023-01-11T15:25:02.733Z,0.076
2023-01-11T15:30:02.699Z,0
2023-01-11T15:35:02.693Z,0.001
2023-01-11T15:40:02.709Z,0.004
2023-01-11T15:45:02.727Z,0.096
2023-01-11T15:50:02.754Z,0.076
2023-01-11T15:55:02.856Z,0.022
2023-01-11T16:00:03.172Z,0.021
2023-01-11T16:05:02.956Z,0.056
2023-01-11T16:10:02.780Z,0.019
2023-01-11T16:15:02.860Z,0.029
2023-01-11T16:20:02.868Z,0.049
2023-01-11T16:25:02.791Z,0.07
2023-01-11T16:30:02.922Z,0.008
2023-01-11T16:35:02.761Z,0.008
2023-01-11T16:40:02.850Z,0.013000000000000001
2023-01-11T16:45:02.814Z,0.024
2023-01-11T16:50:02.760Z,0.02
2023-01-11T16:55:02.810Z,0.042
2023-01-11T17:00:02.896Z,0.075
2023-01-11T17:05:02.983Z,0.076
2023-01-11T17:10:03.030Z,0.117
2023-01-11T17:15:03.008Z,0.114
2023-01-11T17:20:02.754Z,0.111
2023-01-11T17:25:02.773Z,0.062
2023-01-11T17:30:02.795Z,0.063
2023-01-11T17:35:02.787Z,0.052000000000000005
2023-01-11T17:40:02.886Z,0.027
2023-01-11T17:45:02.800Z,0.048
2023-01-11T17:50:02.780Z,0.056
2023-01-11T17:55:02.921Z,0.07
2023-01-11T18:00:02.825Z,0.122
2023-01-11T18:05:02.834Z,0.125
2023-01-11T18:10:03.832Z,0.085
2023-01-11T18:15:02.990Z,0.08600000000000001
2023-01-11T18:20:03.057Z,0.08600000000000001
2023-01-11T18:25:03.075Z,0.078
2023-01-11T18:30:02.840Z,0.055
2023-01-11T18:35:02.833Z,0.09
2023-01-11T18:40:02.870Z,0.004
2023-01-11T18:45:02.882Z,0.008
2023-01-11T18:50:02.853Z,0.007
2023-01-11T18:55:02.842Z,0.003
2023-01-11T19:00:02.898Z,0.018000000000000002
2023-01-11T19:05:02.825Z,0.046
2023-01-11T19:10:02.944Z,0.058
2023-01-11T19:15:01.657Z,0.054
2023-01-11T19:20:01.521Z,0.053
2023-01-11T19:25:01.580Z,0.083
2023-01-11T19:30:01.569Z,0.111
2023-01-11T19:35:01.592Z,0.109
2023-01-11T19:40:01.576Z,0.013000000000000001
2023-01-11T19:45:01.594Z,0.078
2023-01-11T19:50:01.522Z,0.08600000000000001
2023-01-11T19:55:01.658Z,0.081
2023-01-11T20:00:01.683Z,0.025
2023-01-11T20:05:01.686Z,0
2023-01-11T20:10:01.753Z,0
2023-01-11T20:15:01.751Z,0.17200000000000001
2023-01-11T20:20:01.793Z,0
2023-01-11T20:25:01.592Z,0
2023-01-11T20:30:01.712Z,0.005
2023-01-11T20:35:01.582Z,0.096
2023-01-11T20:40:01.599Z,0.091
2023-01-11T20:45:01.749Z,0.092
2023-01-11T20:50:01.591Z,0.098
2023-01-11T20:55:01.638Z,0.10400000000000001
2023-01-11T21:00:01.754Z,0.15
2023-01-11T21:05:01.656Z,0.161
2023-01-11T21:10:01.686Z,0.099
2023-01-11T21:15:01.857Z,0
2023-01-11T21:20:01.839Z,0
2023-01-11T21:25:01.862Z,0
2023-01-11T21:30:01.660Z,0
2023-01-11T21:35:01.737Z,0
2023-01-11T21:40:01.600Z,0.11900000000000001
2023-01-11T21:45:01.672Z,0.163
2023-01-11T21:50:01.649Z,0.168
2023-01-11T21:55:01.783Z,0.167
2023-01-11T22:00:01.644Z,0.133
2023-01-11T22:05:01.686Z,0.11900000000000001
2023-01-11T22:10:05.236Z,0.11800000000000001
2023-01-11T22:15:01.837Z,0.068
2023-01-11T22:20:01.861Z,0
2023-01-11T22:25:01.925Z,0
2023-01-11T22:30:01.770Z,0
2023-01-11T22:35:01.654Z,0.004
2023-01-11T22:40:02.135Z,0.017
2023-01-11T22:45:01.736Z,0.139
2023-01-11T22:50:01.735Z,0.115
2023-01-11T22:55:01.717Z,0.114
2023-01-11T23:00:01.730Z,0.11
2023-01-11T23:05:01.983Z,0.11
2023-01-11T23:10:01.743Z,0.125
2023-01-11T23:15:03.841Z,0.043000000000000003
2023-01-11T23:20:01.908Z,0
2023-01-11T23:25:01.849Z,0
2023-01-11T23:30:01.938Z,0
2023-01-11T23:35:01.734Z,0
2023-01-11T23:40:01.727Z,0
2023-01-11T23:45:01.796Z,0.113
2023-01-11T23:50:01.732Z,0.113
2023-01-11T23:55:01.812Z,0.111
